| Date | Time | Temp. (oF) | Dew Point (oF) | Rel. Hum. (%) | Press. (in.) | Wind Dir. | Wind Speed (mph) | Hourly Rainfall (in.) |
|
|---|---|---|---|---|---|---|---|---|---|
| 1 | 04/30 | 00:00 | 50 | 29 | 46 | 29.95 | NW | 4 | 0.00 |
| 2 | 04/29 | 23:00 | 47 | 32 | 56 | 29.93 | NNW | 4 | 0.00 |
| 3 | 04/29 | 22:00 | 51 | 34 | 53 | 29.91 | NW | 0 | 0.00 |
| 4 | 04/29 | 21:00 | 51 | 30 | 46 | 29.88 | W | 1 | 0.00 |
| 5 | 04/29 | 20:00 | 57 | 32 | 40 | 29.85 | NW | 2 | 0.00 |
| 6 | 04/29 | 19:00 | 60 | 31 | 34 | 29.82 | NNW | 3 | 0.00 |
| 7 | 04/29 | 18:00 | 61 | 33 | 36 | 29.81 | WNW | 2 | 0.00 |
| 8 | 04/29 | 17:00 | 61 | 35 | 38 | 29.76 | NW | 7 | 0.00 |
| 9 | 04/29 | 16:00 | 59 | 35 | 42 | 29.77 | WNW | 10 | 0.00 |
| 10 | 04/29 | 15:00 | 57 | 35 | 45 | 29.80 | NW | 8 | 0.00 |
| 11 | 04/29 | 14:00 | 56 | 37 | 50 | 29.81 | NNW | 8 | 0.00 |
| 12 | 04/29 | 13:00 | 55 | 39 | 56 | 29.79 | NNE | 13 | 0.00 |
| 13 | 04/29 | 12:00 | 52 | 39 | 63 | 29.81 | NNW | 7 | 0.00 |
| 14 | 04/29 | 11:00 | 49 | 40 | 72 | 29.81 | NW | 7 | 0.00 |
| 15 | 04/29 | 10:00 | 48 | 40 | 74 | 29.79 | NNW | 9 | 0.00 |
| 16 | 04/29 | 09:00 | 48 | 41 | 79 | 29.75 | NNW | 6 | 0.00 |
| 17 | 04/29 | 08:00 | 48 | 43 | 84 | 29.74 | NW | 4 | 0.00 |
| 18 | 04/29 | 07:00 | 48 | 44 | 86 | 29.73 | NW | 3 | 0.00 |
| 19 | 04/29 | 06:00 | 48 | 43 | 85 | 29.71 | NW | 7 | 0.00 |
| 20 | 04/29 | 05:00 | 49 | 45 | 87 | 29.70 | N | 3 | 0.00 |
| 21 | 04/29 | 04:00 | 49 | 45 | 89 | 29.72 | W | 0 | 0.00 |
| 22 | 04/29 | 03:00 | 49 | 46 | 90 | 29.69 | N | 4 | 0.00 |
| 23 | 04/29 | 02:00 | 49 | 47 | 93 | 29.71 | W | 2 | 0.00 |
| 24 | 04/29 | 01:00 | 49 | 47 | 94 | 29.72 | NNW | 3 | 0.00 |